This is the latest recevied weather packets stored in our database for station/object R6DH-11. If no packets are shown the sender has not sent any weather packets the latest 10 day(s).
| Time | Temp. | Humidity | Pressure | Rain* | Wind** | Luminosity | Snow |
|---|---|---|---|---|---|---|---|
| 1777501326 | 6.11° C | 71% | 1017.5 hPa | - | - | - | - |
| 1777500426 | 5.56° C | 70% | 1017.4 hPa | - | - | - | - |
| 1777499526 | 6.11° C | 68% | 1017.4 hPa | - | - | - | - |
| 1777498626 | 6.67° C | 69% | 1017.4 hPa | - | - | - | - |
| 1777497725 | 6.67° C | 67% | 1017.4 hPa | - | - | - | - |
| 1777494125 | 7.22° C | 66% | 1017.6 hPa | - | - | - | - |
| 1777491425 | 8.89° C | 63% | 1017.5 hPa | - | - | - | - |
| 1777490527 | 8.33° C | 61% | 1015.5 hPa | - | - | - | - |
| 1777489627 | 10° C | 59% | 1017.6 hPa | - | - | - | - |
| 1777487827 | 10.56° C | 57% | 1017.6 hPa | - | - | - | - |
| 1777484226 | 11.67° C | 51% | 1017.3 hPa | - | - | - | - |
| 1777483326 | 11.67° C | 52% | 1017.2 hPa | - | - | - | - |
| 1777481526 | 13.33° C | 44% | 1016.9 hPa | - | - | - | - |
| 1777480626 | 13.89° C | 42% | 1016.7 hPa | - | - | - | - |
| 1777476125 | 16.11° C | 34% | 1016.6 hPa | - | - | - | - |
| 1777474325 | 16.67° C | 31% | 1016.6 hPa | - | - | - | - |
| 1777469824 | 17.78° C | 27% | 1016.5 hPa | - | - | - | - |
| 1777468026 | 18.33° C | 26% | 1016.5 hPa | - | - | - | - |
| 1777466226 | 18.89° C | 25% | 1016.5 hPa | - | - | - | - |
| 1777465326 | 20.56° C | 24% | 1016.4 hPa | - | - | - | - |
| 1777464426 | 19.44° C | 24% | 1016.5 hPa | - | - | - | - |
| 1777463526 | 19.44° C | 24% | 1016.6 hPa | - | - | - | - |
| 1777462625 | 21.67° C | 23% | 1016.6 hPa | - | - | - | - |
| 1777461725 | 21.67° C | 24% | 1016.7 hPa | - | - | - | - |
| 1777460825 | 18.33° C | 26% | 1016.7 hPa | - | - | - | - |
* Rain since midnight (hover to see other rain measurements)
** Current wind speed in m/s (hover to see current wind gust speed)